createdAt,value
2023-05-12T00:00:03.466Z,100.00
2023-05-12T00:02:31.307Z,100.00
2023-05-12T00:04:58.075Z,100.00
2023-05-12T00:07:25.005Z,100.00
2023-05-12T00:09:51.665Z,100.00
2023-05-12T00:12:18.800Z,100.00
2023-05-12T00:14:45.580Z,100.00
2023-05-12T00:17:13.859Z,100.00
2023-05-12T00:19:43.808Z,100.00
2023-05-12T00:22:13.528Z,100.00
2023-05-12T00:24:40.169Z,100.00
2023-05-12T00:27:07.494Z,100.00
2023-05-12T00:29:34.550Z,100.00
2023-05-12T00:32:01.340Z,100.00
2023-05-12T00:34:28.492Z,100.00
2023-05-12T00:36:55.140Z,100.00
2023-05-12T00:39:21.949Z,100.00
2023-05-12T00:41:50.082Z,100.00
2023-05-12T00:44:18.474Z,100.00
2023-05-12T00:46:45.262Z,100.00
2023-05-12T00:49:12.703Z,100.00
2023-05-12T00:51:40.113Z,100.00
2023-05-12T00:54:06.880Z,100.00
2023-05-12T00:56:42.748Z,100.00
2023-05-12T00:59:09.441Z,100.00
2023-05-12T01:01:36.763Z,100.00
2023-05-12T01:04:03.963Z,100.00
2023-05-12T01:06:48.688Z,100.00
2023-05-12T01:09:15.808Z,100.00
2023-05-12T01:11:42.480Z,100.00
2023-05-12T01:14:09.216Z,100.00
2023-05-12T01:16:45.911Z,100.00
2023-05-12T01:19:29.715Z,100.00
2023-05-12T01:21:57.085Z,100.00
2023-05-12T01:24:27.388Z,100.00
2023-05-12T01:26:54.111Z,100.00
2023-05-12T01:29:22.197Z,100.00
2023-05-12T01:31:49.957Z,100.00
2023-05-12T01:34:18.569Z,100.00
2023-05-12T01:36:45.255Z,100.00
2023-05-12T01:39:12.649Z,100.00
2023-05-12T01:41:39.280Z,100.00
2023-05-12T01:44:05.921Z,100.00
2023-05-12T01:46:32.639Z,100.00
2023-05-12T01:48:59.329Z,100.00
2023-05-12T01:51:25.969Z,100.00
2023-05-12T01:53:52.581Z,100.00
2023-05-12T01:56:20.016Z,100.00
2023-05-12T01:58:46.696Z,100.00
2023-05-12T02:01:13.456Z,100.00
2023-05-12T02:03:40.330Z,100.00
2023-05-12T02:06:07.085Z,100.00
2023-05-12T02:08:33.727Z,100.00
2023-05-12T02:11:10.071Z,100.00
2023-05-12T02:13:36.859Z,100.00
2023-05-12T02:16:04.016Z,100.00
2023-05-12T02:18:30.880Z,100.00
2023-05-12T02:20:57.532Z,100.00
2023-05-12T02:23:24.245Z,100.00
2023-05-12T02:25:50.836Z,100.00
2023-05-12T02:28:17.706Z,100.00
2023-05-12T02:30:48.878Z,100.00
2023-05-12T02:33:16.344Z,100.00
2023-05-12T02:35:44.345Z,100.00
2023-05-12T02:38:11.720Z,100.00
2023-05-12T02:40:38.739Z,100.00
2023-05-12T02:43:05.655Z,100.00
2023-05-12T02:45:32.298Z,100.00
2023-05-12T02:47:58.919Z,100.00
2023-05-12T02:50:25.701Z,100.00
2023-05-12T02:52:52.386Z,100.00
2023-05-12T02:55:19.095Z,100.00
2023-05-12T02:57:45.841Z,100.00
2023-05-12T03:00:12.900Z,100.00
2023-05-12T03:02:40.142Z,100.00
2023-05-12T03:05:09.106Z,100.00
2023-05-12T03:07:35.989Z,100.00
2023-05-12T03:10:02.808Z,100.00
2023-05-12T03:12:29.975Z,100.00
2023-05-12T03:14:57.147Z,100.00
2023-05-12T03:17:23.820Z,100.00
2023-05-12T03:19:50.469Z,100.00
2023-05-12T03:22:17.463Z,100.00
2023-05-12T03:24:44.222Z,100.00
2023-05-12T03:27:10.837Z,100.00
2023-05-12T03:29:37.481Z,100.00
2023-05-12T03:32:04.329Z,100.00
2023-05-12T03:34:31.503Z,100.00
2023-05-12T03:36:58.260Z,100.00
2023-05-12T03:39:25.132Z,100.00
2023-05-12T03:41:51.764Z,100.00
2023-05-12T03:44:18.868Z,100.00
2023-05-12T03:46:45.662Z,100.00
2023-05-12T03:49:12.654Z,100.00
2023-05-12T03:51:39.512Z,100.00
2023-05-12T03:54:06.182Z,100.00
2023-05-12T03:56:32.838Z,100.00
2023-05-12T03:58:59.606Z,100.00
2023-05-12T04:01:26.208Z,100.00
2023-05-12T04:03:53.027Z,100.00
2023-05-12T04:06:19.737Z,100.00
2023-05-12T04:08:46.468Z,100.00
2023-05-12T04:11:14.008Z,100.00
2023-05-12T04:13:40.640Z,100.00
2023-05-12T04:16:07.353Z,100.00
2023-05-12T04:18:35.772Z,100.00
2023-05-12T04:21:02.980Z,100.00
2023-05-12T04:23:29.681Z,100.00
2023-05-12T04:25:56.477Z,100.00
2023-05-12T04:28:23.171Z,100.00
2023-05-12T04:30:49.866Z,100.00
2023-05-12T04:33:16.587Z,100.00
2023-05-12T04:35:43.186Z,100.00
2023-05-12T04:38:09.834Z,100.00
2023-05-12T04:40:36.521Z,100.00
2023-05-12T04:43:03.190Z,100.00
2023-05-12T04:45:30.273Z,100.00
2023-05-12T04:47:57.016Z,100.00
2023-05-12T04:50:23.768Z,100.00
2023-05-12T04:52:50.528Z,100.00
2023-05-12T04:55:17.290Z,100.00
2023-05-12T04:57:44.089Z,100.00
2023-05-12T05:00:11.477Z,100.00
2023-05-12T05:02:38.331Z,100.00
2023-05-12T05:05:05.699Z,100.00
2023-05-12T05:07:32.372Z,100.00
2023-05-12T05:09:59.073Z,100.00
2023-05-12T05:12:25.876Z,100.00
2023-05-12T05:14:52.479Z,100.00
2023-05-12T05:17:19.135Z,100.00
2023-05-12T05:19:57.549Z,100.00
2023-05-12T05:22:25.816Z,100.00
2023-05-12T05:24:52.596Z,100.00
2023-05-12T05:27:19.277Z,100.00
2023-05-12T05:29:45.967Z,100.00
2023-05-12T05:32:12.646Z,100.00
2023-05-12T05:34:39.374Z,100.00
2023-05-12T05:37:06.165Z,100.00
2023-05-12T05:39:32.908Z,100.00
2023-05-12T05:41:59.546Z,100.00
2023-05-12T05:44:26.186Z,100.00
2023-05-12T05:46:52.964Z,100.00
2023-05-12T05:49:19.793Z,100.00
2023-05-12T05:51:46.400Z,100.00
2023-05-12T05:54:13.120Z,100.00
2023-05-12T05:56:39.742Z,100.00
2023-05-12T05:59:06.446Z,100.00
2023-05-12T06:01:33.170Z,100.00
2023-05-12T06:04:00.013Z,100.00
2023-05-12T06:06:26.869Z,100.00
2023-05-12T06:08:55.957Z,100.00
2023-05-12T06:11:22.766Z,95.31
2023-05-12T06:13:49.704Z,76.35
2023-05-12T06:16:16.401Z,79.08
2023-05-12T06:18:43.065Z,67.88
2023-05-12T06:21:09.926Z,55.35
2023-05-12T06:23:36.618Z,53.21
2023-05-12T06:26:04.090Z,54.70
2023-05-12T06:28:30.778Z,63.97
2023-05-12T06:30:59.472Z,77.15
2023-05-12T06:33:26.111Z,85.36
2023-05-12T06:35:52.758Z,81.55
2023-05-12T06:38:19.417Z,88.82
2023-05-12T06:40:46.116Z,94.01
2023-05-12T06:43:13.148Z,98.36
2023-05-12T06:45:39.830Z,100.00
2023-05-12T06:48:06.568Z,100.00
2023-05-12T06:50:33.186Z,100.00
2023-05-12T06:52:59.821Z,100.00
2023-05-12T06:55:26.600Z,100.00
2023-05-12T06:57:55.938Z,100.00
2023-05-12T07:00:24.010Z,100.00
2023-05-12T07:02:50.787Z,100.00
2023-05-12T07:05:18.893Z,100.00
2023-05-12T07:07:45.713Z,100.00
2023-05-12T07:10:12.522Z,100.00
2023-05-12T07:12:39.361Z,100.00
2023-05-12T07:15:06.689Z,100.00
2023-05-12T07:17:33.397Z,100.00
2023-05-12T07:20:00.182Z,100.00
2023-05-12T07:22:27.686Z,100.00
2023-05-12T07:24:54.361Z,100.00
2023-05-12T07:27:21.018Z,100.00
2023-05-12T07:29:47.688Z,100.00
2023-05-12T07:32:14.441Z,100.00
2023-05-12T07:34:41.112Z,100.00
2023-05-12T07:37:07.724Z,100.00
2023-05-12T07:39:34.420Z,100.00
2023-05-12T07:42:01.052Z,100.00
2023-05-12T07:44:28.315Z,100.00
2023-05-12T07:46:55.030Z,100.00
2023-05-12T07:49:23.268Z,100.00
2023-05-12T07:51:50.131Z,100.00
2023-05-12T07:54:16.901Z,100.00
2023-05-12T07:56:43.581Z,100.00
2023-05-12T07:59:10.845Z,100.00
2023-05-12T08:01:37.480Z,100.00
2023-05-12T08:04:04.382Z,100.00
2023-05-12T08:06:31.622Z,100.00
2023-05-12T08:08:59.090Z,99.68
2023-05-12T08:11:26.517Z,96.39
2023-05-12T08:13:53.592Z,98.94
2023-05-12T08:16:20.623Z,100.00
2023-05-12T08:18:47.367Z,100.00
2023-05-12T08:21:14.057Z,99.12
2023-05-12T08:23:40.854Z,100.00
2023-05-12T08:26:07.491Z,100.00
2023-05-12T08:28:34.237Z,99.69
2023-05-12T08:31:04.075Z,97.47
2023-05-12T08:33:31.536Z,92.01
2023-05-12T08:35:58.245Z,85.70
2023-05-12T08:38:24.936Z,79.74
2023-05-12T08:41:25.509Z,82.49
2023-05-12T08:43:52.998Z,84.81
2023-05-12T08:46:20.682Z,87.88
2023-05-12T08:48:50.731Z,89.02
2023-05-12T08:51:19.143Z,88.77
2023-05-12T08:53:49.127Z,88.05
2023-05-12T08:58:49.735Z,88.13
2023-05-12T09:01:17.517Z,92.96
2023-05-12T09:03:44.834Z,90.65
2023-05-12T09:06:11.993Z,92.06
2023-05-12T09:08:40.504Z,90.96
2023-05-12T09:11:11.332Z,100.00
2023-05-12T09:14:04.376Z,100.00
2023-05-12T09:16:34.178Z,100.00
2023-05-12T09:19:03.078Z,100.00
2023-05-12T09:21:30.824Z,100.00
2023-05-12T09:24:09.283Z,100.00
2023-05-12T09:26:49.954Z,100.00
2023-05-12T09:29:27.802Z,100.00
2023-05-12T09:31:59.453Z,100.00
2023-05-12T09:34:38.380Z,100.00
2023-05-12T09:37:06.955Z,100.00
2023-05-12T09:39:33.936Z,100.00
2023-05-12T09:42:00.697Z,100.00
2023-05-12T09:44:30.285Z,100.00
2023-05-12T09:47:06.154Z,100.00
2023-05-12T09:49:32.793Z,100.00
2023-05-12T09:51:59.937Z,100.00
2023-05-12T09:54:27.816Z,100.00
2023-05-12T09:56:58.554Z,100.00
2023-05-12T09:59:34.223Z,100.00
2023-05-12T10:02:02.540Z,100.00
2023-05-12T10:04:32.731Z,100.00
2023-05-12T10:07:00.168Z,100.00
2023-05-12T10:09:34.032Z,100.00
2023-05-12T10:12:04.393Z,100.00
2023-05-12T10:14:31.911Z,100.00
2023-05-12T10:17:00.190Z,100.00
2023-05-12T10:19:28.516Z,100.00
2023-05-12T10:21:57.244Z,100.00
2023-05-12T10:24:27.889Z,100.00
2023-05-12T10:26:56.527Z,100.00
2023-05-12T10:29:30.467Z,100.00
2023-05-12T10:31:57.989Z,100.00
2023-05-12T10:34:33.890Z,100.00
2023-05-12T10:37:01.273Z,100.00
2023-05-12T10:39:29.916Z,100.00
2023-05-12T10:42:25.664Z,100.00
2023-05-12T10:44:54.240Z,100.00
2023-05-12T10:47:26.886Z,100.00
2023-05-12T10:50:00.310Z,100.00
2023-05-12T10:52:27.023Z,100.00
2023-05-12T10:55:01.358Z,100.00
2023-05-12T10:57:28.899Z,100.00
2023-05-12T11:00:01.202Z,100.00
2023-05-12T11:02:32.655Z,100.00
2023-05-12T11:05:04.388Z,100.00
2023-05-12T11:07:34.714Z,100.00
2023-05-12T11:10:05.137Z,100.00
2023-05-12T11:12:33.941Z,100.00
2023-05-12T11:15:01.978Z,100.00
2023-05-12T11:17:29.017Z,100.00
2023-05-12T11:19:56.398Z,100.00
2023-05-12T11:22:23.947Z,100.00
2023-05-12T11:24:52.530Z,100.00
2023-05-12T11:27:22.828Z,100.00
2023-05-12T11:29:58.799Z,100.00
2023-05-12T11:32:25.716Z,100.00
2023-05-12T11:34:52.678Z,100.00
2023-05-12T11:37:21.147Z,100.00
2023-05-12T11:39:48.162Z,100.00
2023-05-12T11:42:17.012Z,100.00
2023-05-12T11:44:47.836Z,100.00
2023-05-12T11:47:15.835Z,100.00
2023-05-12T11:49:50.710Z,100.00
2023-05-12T11:52:19.566Z,100.00
2023-05-12T11:54:52.992Z,100.00
2023-05-12T11:57:37.723Z,100.00
2023-05-12T12:00:09.492Z,100.00
2023-05-12T12:02:37.454Z,100.00
2023-05-12T12:05:06.471Z,100.00
2023-05-12T12:07:36.536Z,100.00
2023-05-12T12:10:17.238Z,100.00
2023-05-12T12:12:44.709Z,100.00
2023-05-12T12:15:12.378Z,100.00
2023-05-12T12:17:39.928Z,100.00
2023-05-12T12:20:08.186Z,100.00
2023-05-12T12:22:35.292Z,100.00
2023-05-12T12:25:03.175Z,100.00
2023-05-12T12:27:30.096Z,100.00
2023-05-12T12:29:56.782Z,100.00
2023-05-12T12:32:23.720Z,100.00
2023-05-12T12:34:50.464Z,100.00
2023-05-12T12:37:17.224Z,100.00
2023-05-12T12:39:44.092Z,100.00
2023-05-12T12:42:10.736Z,100.00
2023-05-12T12:44:37.339Z,100.00
2023-05-12T12:47:04.863Z,100.00
2023-05-12T12:49:31.568Z,100.00
2023-05-12T12:51:58.276Z,100.00
2023-05-12T12:54:27.352Z,100.00
2023-05-12T12:56:55.587Z,100.00
2023-05-12T12:59:22.591Z,100.00
2023-05-12T13:01:49.446Z,100.00
2023-05-12T13:04:19.638Z,100.00
2023-05-12T13:06:46.697Z,100.00
2023-05-12T13:09:13.927Z,100.00
2023-05-12T13:11:40.693Z,100.00
2023-05-12T13:14:08.258Z,100.00
2023-05-12T13:16:34.973Z,100.00
2023-05-12T13:19:02.071Z,100.00
2023-05-12T13:21:28.830Z,100.00
2023-05-12T13:23:55.530Z,100.00
2023-05-12T13:26:22.412Z,100.00
2023-05-12T13:28:49.142Z,100.00
2023-05-12T13:31:15.930Z,100.00
2023-05-12T13:33:42.724Z,100.00
2023-05-12T13:36:09.452Z,100.00
2023-05-12T13:38:36.070Z,100.00
2023-05-12T13:41:03.370Z,97.43
2023-05-12T13:43:29.988Z,100.00
2023-05-12T13:45:56.947Z,98.46
2023-05-12T13:48:23.615Z,98.33
2023-05-12T13:50:50.372Z,100.00
2023-05-12T13:53:17.029Z,100.00
2023-05-12T13:55:44.550Z,100.00
2023-05-12T13:58:11.257Z,100.00
2023-05-12T14:00:37.951Z,100.00
2023-05-12T14:03:04.750Z,100.00
2023-05-12T14:05:31.563Z,100.00
2023-05-12T14:07:58.339Z,100.00
2023-05-12T14:10:24.961Z,100.00
2023-05-12T14:12:51.690Z,100.00
2023-05-12T14:17:47.914Z,98.83
2023-05-12T14:20:14.678Z,99.17
2023-05-12T14:22:41.949Z,100.00
2023-05-12T14:25:08.908Z,100.00
2023-05-12T14:27:35.684Z,100.00
2023-05-12T14:30:02.478Z,100.00
2023-05-12T14:32:29.252Z,100.00
2023-05-12T14:34:55.943Z,100.00
2023-05-12T14:37:22.612Z,100.00
2023-05-12T14:39:49.278Z,100.00
2023-05-12T14:42:16.025Z,100.00
2023-05-12T14:44:42.838Z,100.00
2023-05-12T14:47:09.501Z,100.00
2023-05-12T14:49:36.445Z,100.00
2023-05-12T14:52:03.709Z,100.00
2023-05-12T14:54:30.793Z,100.00
2023-05-12T14:56:57.460Z,100.00
2023-05-12T14:59:24.144Z,100.00
2023-05-12T15:01:50.874Z,100.00
2023-05-12T15:04:17.644Z,100.00
2023-05-12T15:06:44.301Z,100.00
2023-05-12T15:09:10.931Z,100.00
2023-05-12T15:11:37.735Z,100.00
2023-05-12T15:14:04.811Z,100.00
2023-05-12T15:16:32.894Z,100.00
2023-05-12T15:18:59.762Z,100.00
2023-05-12T15:21:26.489Z,100.00
2023-05-12T15:23:53.153Z,100.00
2023-05-12T15:28:49.442Z,100.00
2023-05-12T15:31:16.070Z,100.00
2023-05-12T15:33:42.775Z,100.00
2023-05-12T15:36:11.344Z,100.00
2023-05-12T15:38:38.125Z,100.00
2023-05-12T15:41:05.077Z,100.00
2023-05-12T15:43:31.828Z,100.00
2023-05-12T15:45:58.618Z,100.00
2023-05-12T15:48:25.305Z,100.00
2023-05-12T15:50:51.909Z,100.00
2023-05-12T15:53:18.644Z,100.00
2023-05-12T15:55:45.358Z,100.00
2023-05-12T15:58:12.412Z,100.00
2023-05-12T16:00:39.462Z,100.00
2023-05-12T16:03:06.225Z,100.00
2023-05-12T16:05:34.078Z,100.00
2023-05-12T16:08:00.699Z,100.00
2023-05-12T16:10:27.427Z,100.00
2023-05-12T16:12:54.099Z,100.00
2023-05-12T16:15:21.069Z,100.00
2023-05-12T16:17:48.209Z,100.00
2023-05-12T16:20:15.435Z,100.00
2023-05-12T16:22:42.128Z,100.00
2023-05-12T16:25:09.131Z,100.00
2023-05-12T16:27:36.684Z,100.00
2023-05-12T16:30:04.043Z,100.00
2023-05-12T16:32:30.776Z,100.00
2023-05-12T16:34:57.478Z,100.00
2023-05-12T16:37:24.257Z,100.00
2023-05-12T16:39:50.886Z,100.00
2023-05-12T16:42:17.536Z,100.00
2023-05-12T16:44:44.404Z,100.00
2023-05-12T16:47:11.038Z,100.00
2023-05-12T16:49:37.658Z,100.00
2023-05-12T16:52:04.488Z,100.00
2023-05-12T16:54:32.646Z,100.00
2023-05-12T16:57:01.765Z,100.00
2023-05-12T16:59:28.569Z,100.00
2023-05-12T17:01:55.223Z,100.00
2023-05-12T17:04:21.851Z,100.00
2023-05-12T17:06:50.102Z,100.00
2023-05-12T17:09:17.944Z,100.00
2023-05-12T17:11:45.238Z,100.00
2023-05-12T17:14:12.467Z,100.00
2023-05-12T17:16:39.309Z,100.00
2023-05-12T17:21:36.085Z,100.00
2023-05-12T17:24:03.061Z,100.00
2023-05-12T17:26:29.734Z,100.00
2023-05-12T17:28:56.370Z,100.00
2023-05-12T17:31:23.116Z,100.00
2023-05-12T17:33:49.889Z,100.00
2023-05-12T17:36:18.550Z,100.00
2023-05-12T17:38:45.592Z,100.00
2023-05-12T17:41:12.538Z,100.00
2023-05-12T17:43:39.127Z,100.00
2023-05-12T17:46:07.706Z,100.00
2023-05-12T17:48:34.583Z,100.00
2023-05-12T17:51:03.181Z,100.00
2023-05-12T17:53:31.249Z,100.00
2023-05-12T17:55:58.514Z,100.00
2023-05-12T17:58:25.527Z,100.00
2023-05-12T18:00:52.276Z,100.00
2023-05-12T18:03:23.308Z,100.00
2023-05-12T18:05:57.360Z,100.00
2023-05-12T18:08:23.957Z,100.00
2023-05-12T18:10:51.155Z,100.00
2023-05-12T18:13:17.768Z,100.00
2023-05-12T18:15:44.514Z,100.00
2023-05-12T18:18:11.371Z,100.00
2023-05-12T18:20:38.312Z,100.00
2023-05-12T18:23:05.282Z,100.00
2023-05-12T18:25:31.921Z,100.00
2023-05-12T18:27:58.584Z,100.00
2023-05-12T18:30:25.352Z,100.00
2023-05-12T18:32:52.303Z,100.00
2023-05-12T18:35:19.735Z,100.00
2023-05-12T18:37:46.520Z,100.00
2023-05-12T18:40:13.268Z,100.00
2023-05-12T18:42:39.936Z,100.00
2023-05-12T18:45:07.250Z,100.00
2023-05-12T18:47:34.406Z,100.00
2023-05-12T18:50:01.172Z,100.00
2023-05-12T18:52:27.922Z,100.00
2023-05-12T18:54:54.538Z,100.00
2023-05-12T18:57:21.601Z,100.00
2023-05-12T18:59:48.294Z,100.00
2023-05-12T19:02:14.955Z,100.00
2023-05-12T19:04:41.672Z,100.00
2023-05-12T19:07:09.955Z,100.00
2023-05-12T19:09:37.249Z,100.00
2023-05-12T19:12:06.017Z,100.00
2023-05-12T19:14:32.880Z,100.00
2023-05-12T19:16:59.546Z,100.00
2023-05-12T19:19:26.177Z,100.00
2023-05-12T19:21:52.923Z,100.00
2023-05-12T19:24:19.694Z,100.00
2023-05-12T19:26:46.405Z,100.00
2023-05-12T19:29:13.238Z,100.00
2023-05-12T19:31:40.098Z,100.00
2023-05-12T19:34:07.235Z,100.00
2023-05-12T19:36:34.381Z,100.00
2023-05-12T19:39:01.115Z,100.00
2023-05-12T19:41:29.735Z,100.00
2023-05-12T19:43:56.591Z,100.00
2023-05-12T19:46:23.660Z,100.00
2023-05-12T19:48:51.737Z,100.00
2023-05-12T19:51:18.615Z,100.00
2023-05-12T19:53:45.319Z,100.00
2023-05-12T19:56:12.008Z,100.00
2023-05-12T19:58:38.834Z,100.00
2023-05-12T20:01:05.788Z,100.00
2023-05-12T20:03:32.544Z,100.00
2023-05-12T20:05:59.277Z,100.00
2023-05-12T20:08:26.003Z,100.00
2023-05-12T20:10:52.705Z,100.00
2023-05-12T20:13:19.351Z,100.00
2023-05-12T20:15:46.300Z,100.00
2023-05-12T20:18:15.581Z,100.00
2023-05-12T20:20:43.138Z,100.00
2023-05-12T20:23:09.835Z,100.00
2023-05-12T20:25:36.863Z,100.00
2023-05-12T20:28:03.807Z,100.00
2023-05-12T20:30:30.538Z,100.00
2023-05-12T20:32:57.270Z,100.00
2023-05-12T20:35:24.153Z,100.00
2023-05-12T20:37:51.289Z,100.00
2023-05-12T20:40:18.343Z,100.00
2023-05-12T20:42:48.960Z,100.00
2023-05-12T20:45:15.828Z,100.00
2023-05-12T20:47:42.771Z,100.00
2023-05-12T20:50:10.013Z,100.00
2023-05-12T20:52:37.918Z,100.00
2023-05-12T20:55:05.144Z,100.00
2023-05-12T20:57:31.813Z,100.00
2023-05-12T20:59:58.441Z,100.00
2023-05-12T21:02:29.000Z,100.00
2023-05-12T21:04:56.312Z,100.00
2023-05-12T21:07:23.044Z,100.00
2023-05-12T21:09:49.839Z,100.00
2023-05-12T21:12:16.527Z,100.00
2023-05-12T21:14:45.164Z,100.00
2023-05-12T21:17:12.972Z,100.00
2023-05-12T21:19:40.615Z,100.00
2023-05-12T21:22:09.064Z,100.00
2023-05-12T21:24:37.395Z,100.00
2023-05-12T21:27:08.121Z,100.00
2023-05-12T21:29:35.312Z,100.00
2023-05-12T21:32:02.243Z,100.00
2023-05-12T21:34:29.152Z,100.00
2023-05-12T21:36:56.498Z,100.00
2023-05-12T21:39:23.156Z,100.00
2023-05-12T21:41:49.770Z,100.00
2023-05-12T21:44:16.437Z,100.00
2023-05-12T21:46:43.443Z,100.00
2023-05-12T21:49:10.350Z,100.00
2023-05-12T21:51:37.164Z,100.00
2023-05-12T21:54:04.049Z,100.00
2023-05-12T21:56:30.713Z,100.00
2023-05-12T21:58:57.364Z,100.00
2023-05-12T22:01:24.219Z,100.00
2023-05-12T22:03:51.337Z,100.00
2023-05-12T22:06:18.146Z,100.00
2023-05-12T22:08:44.826Z,100.00
2023-05-12T22:11:11.674Z,100.00
2023-05-12T22:13:38.459Z,100.00
2023-05-12T22:16:05.740Z,100.00
2023-05-12T22:18:33.371Z,100.00
2023-05-12T22:21:00.563Z,100.00
2023-05-12T22:23:27.333Z,100.00
2023-05-12T22:25:53.928Z,100.00
2023-05-12T22:28:20.618Z,100.00
2023-05-12T22:30:47.353Z,100.00
2023-05-12T22:33:13.982Z,100.00
2023-05-12T22:35:40.620Z,100.00
2023-05-12T22:38:07.301Z,100.00
2023-05-12T22:40:33.993Z,100.00
2023-05-12T22:43:00.602Z,100.00
2023-05-12T22:45:27.225Z,100.00
2023-05-12T22:47:54.220Z,100.00
2023-05-12T22:50:21.353Z,100.00
2023-05-12T22:52:48.290Z,100.00
2023-05-12T22:55:15.230Z,100.00
2023-05-12T22:57:43.744Z,100.00
2023-05-12T23:00:11.599Z,100.00
2023-05-12T23:02:38.483Z,100.00
2023-05-12T23:05:05.719Z,100.00
2023-05-12T23:07:32.308Z,100.00
2023-05-12T23:09:59.002Z,100.00
2023-05-12T23:12:25.973Z,100.00
2023-05-12T23:14:52.833Z,100.00
2023-05-12T23:17:20.824Z,100.00
2023-05-12T23:19:47.538Z,100.00
2023-05-12T23:22:14.196Z,100.00
2023-05-12T23:24:41.013Z,100.00
2023-05-12T23:27:07.945Z,100.00
2023-05-12T23:29:34.544Z,100.00
2023-05-12T23:32:01.443Z,100.00
2023-05-12T23:34:28.393Z,100.00
2023-05-12T23:36:55.073Z,100.00
2023-05-12T23:39:21.734Z,100.00
2023-05-12T23:41:49.505Z,100.00
2023-05-12T23:44:16.357Z,100.00
2023-05-12T23:46:43.296Z,100.00
2023-05-12T23:49:10.154Z,100.00
2023-05-12T23:51:36.780Z,100.00
2023-05-12T23:54:03.421Z,100.00
2023-05-12T23:56:30.033Z,100.00
2023-05-12T23:58:56.691Z,100.00
